sensor_id;sensor_type;location;lat;lon;timestamp;P1;durP1;ratioP1;P2;durP2;ratioP2
63005;SDS011;53704;52.532;6.426;2023-10-31T00:01:59;48.25;;;27.15;;
63005;SDS011;53704;52.532;6.426;2023-10-31T00:04:24;103.85;;;29.85;;
63005;SDS011;53704;52.532;6.426;2023-10-31T00:06:50;45.40;;;24.00;;
63005;SDS011;53704;52.532;6.426;2023-10-31T00:09:15;72.22;;;30.48;;
63005;SDS011;53704;52.532;6.426;2023-10-31T00:11:41;47.10;;;26.00;;
63005;SDS011;53704;52.532;6.426;2023-10-31T00:14:08;51.60;;;26.88;;
63005;SDS011;53704;52.532;6.426;2023-10-31T00:16:33;67.35;;;31.17;;
63005;SDS011;53704;52.532;6.426;2023-10-31T00:18:59;54.65;;;28.77;;
63005;SDS011;53704;52.532;6.426;2023-10-31T00:21:24;51.67;;;29.58;;
63005;SDS011;53704;52.532;6.426;2023-10-31T00:23:50;76.20;;;35.17;;
63005;SDS011;53704;52.532;6.426;2023-10-31T00:26:15;83.13;;;34.33;;
63005;SDS011;53704;52.532;6.426;2023-10-31T00:28:41;56.88;;;29.75;;
63005;SDS011;53704;52.532;6.426;2023-10-31T00:31:07;79.22;;;28.85;;
63005;SDS011;53704;52.532;6.426;2023-10-31T00:33:36;75.70;;;31.02;;
63005;SDS011;53704;52.532;6.426;2023-10-31T00:36:02;65.28;;;31.50;;
63005;SDS011;53704;52.532;6.426;2023-10-31T00:38:27;53.25;;;28.45;;
63005;SDS011;53704;52.532;6.426;2023-10-31T00:40:53;67.30;;;29.90;;
63005;SDS011;53704;52.532;6.426;2023-10-31T00:43:18;50.80;;;27.95;;
63005;SDS011;53704;52.532;6.426;2023-10-31T00:45:44;25.00;;;13.07;;
63005;SDS011;53704;52.532;6.426;2023-10-31T00:48:09;6.85;;;4.13;;
63005;SDS011;53704;52.532;6.426;2023-10-31T00:50:34;3.33;;;3.03;;
63005;SDS011;53704;52.532;6.426;2023-10-31T00:53:00;1.75;;;1.65;;
63005;SDS011;53704;52.532;6.426;2023-10-31T00:55:25;3.35;;;1.10;;
63005;SDS011;53704;52.532;6.426;2023-10-31T00:57:51;0.82;;;0.68;;
63005;SDS011;53704;52.532;6.426;2023-10-31T01:00:16;0.90;;;0.30;;
63005;SDS011;53704;52.532;6.426;2023-10-31T01:02:42;5.13;;;0.40;;
63005;SDS011;53704;52.532;6.426;2023-10-31T01:05:07;2.78;;;0.30;;
63005;SDS011;53704;52.532;6.426;2023-10-31T01:07:34;0.52;;;0.47;;
63005;SDS011;53704;52.532;6.426;2023-10-31T01:09:59;4.43;;;1.13;;
63005;SDS011;53704;52.532;6.426;2023-10-31T01:12:25;0.73;;;0.52;;
63005;SDS011;53704;52.532;6.426;2023-10-31T01:14:52;6.03;;;0.63;;
63005;SDS011;53704;52.532;6.426;2023-10-31T01:17:19;1.17;;;0.50;;
63005;SDS011;53704;52.532;6.426;2023-10-31T01:19:45;5.13;;;0.50;;
63005;SDS011;53704;52.532;6.426;2023-10-31T01:22:10;4.60;;;0.70;;
63005;SDS011;53704;52.532;6.426;2023-10-31T01:24:35;4.43;;;0.95;;
63005;SDS011;53704;52.532;6.426;2023-10-31T01:27:01;1.30;;;0.80;;
63005;SDS011;53704;52.532;6.426;2023-10-31T01:29:26;2.58;;;0.80;;
63005;SDS011;53704;52.532;6.426;2023-10-31T01:31:52;0.80;;;0.75;;
63005;SDS011;53704;52.532;6.426;2023-10-31T01:34:17;5.40;;;1.02;;
63005;SDS011;53704;52.532;6.426;2023-10-31T01:36:43;5.13;;;0.98;;
63005;SDS011;53704;52.532;6.426;2023-10-31T01:39:08;2.47;;;0.80;;
63005;SDS011;53704;52.532;6.426;2023-10-31T01:41:34;5.38;;;1.20;;
63005;SDS011;53704;52.532;6.426;2023-10-31T01:44:01;1.10;;;0.80;;
63005;SDS011;53704;52.532;6.426;2023-10-31T01:46:26;2.85;;;1.00;;
63005;SDS011;53704;52.532;6.426;2023-10-31T01:48:52;6.07;;;1.08;;
63005;SDS011;53704;52.532;6.426;2023-10-31T01:51:18;4.00;;;0.82;;
63005;SDS011;53704;52.532;6.426;2023-10-31T01:53:44;3.58;;;0.98;;
63005;SDS011;53704;52.532;6.426;2023-10-31T01:56:09;3.88;;;1.00;;
63005;SDS011;53704;52.532;6.426;2023-10-31T01:58:36;7.32;;;0.90;;
63005;SDS011;53704;52.532;6.426;2023-10-31T02:01:02;7.88;;;1.40;;
63005;SDS011;53704;52.532;6.426;2023-10-31T02:03:29;6.22;;;0.95;;
63005;SDS011;53704;52.532;6.426;2023-10-31T02:05:55;2.95;;;0.82;;
63005;SDS011;53704;52.532;6.426;2023-10-31T02:08:21;1.08;;;0.65;;
63005;SDS011;53704;52.532;6.426;2023-10-31T02:10:47;2.47;;;1.10;;
63005;SDS011;53704;52.532;6.426;2023-10-31T02:13:13;6.00;;;1.58;;
63005;SDS011;53704;52.532;6.426;2023-10-31T02:15:40;10.75;;;1.05;;
63005;SDS011;53704;52.532;6.426;2023-10-31T02:18:06;0.65;;;0.60;;
63005;SDS011;53704;52.532;6.426;2023-10-31T02:20:32;5.28;;;1.00;;
63005;SDS011;53704;52.532;6.426;2023-10-31T02:22:58;8.00;;;1.10;;
63005;SDS011;53704;52.532;6.426;2023-10-31T02:25:23;5.32;;;1.15;;
63005;SDS011;53704;52.532;6.426;2023-10-31T02:27:49;6.97;;;1.05;;
63005;SDS011;53704;52.532;6.426;2023-10-31T02:30:14;6.53;;;1.42;;
63005;SDS011;53704;52.532;6.426;2023-10-31T02:32:40;7.10;;;1.40;;
63005;SDS011;53704;52.532;6.426;2023-10-31T02:35:06;9.15;;;1.40;;
63005;SDS011;53704;52.532;6.426;2023-10-31T02:37:33;5.50;;;1.38;;
63005;SDS011;53704;52.532;6.426;2023-10-31T02:39:58;5.00;;;1.92;;
63005;SDS011;53704;52.532;6.426;2023-10-31T02:42:25;3.17;;;1.65;;
63005;SDS011;53704;52.532;6.426;2023-10-31T02:44:51;10.23;;;2.13;;
63005;SDS011;53704;52.532;6.426;2023-10-31T02:47:17;20.55;;;2.13;;
63005;SDS011;53704;52.532;6.426;2023-10-31T02:49:43;6.20;;;2.60;;
63005;SDS011;53704;52.532;6.426;2023-10-31T02:52:08;9.43;;;2.05;;
63005;SDS011;53704;52.532;6.426;2023-10-31T02:54:34;13.10;;;3.00;;
63005;SDS011;53704;52.532;6.426;2023-10-31T02:56:59;16.98;;;2.53;;
63005;SDS011;53704;52.532;6.426;2023-10-31T02:59:24;5.20;;;3.05;;
63005;SDS011;53704;52.532;6.426;2023-10-31T03:01:50;8.55;;;2.30;;
63005;SDS011;53704;52.532;6.426;2023-10-31T03:04:15;6.05;;;2.40;;
63005;SDS011;53704;52.532;6.426;2023-10-31T03:06:41;10.18;;;2.88;;
63005;SDS011;53704;52.532;6.426;2023-10-31T03:09:07;17.67;;;3.90;;
63005;SDS011;53704;52.532;6.426;2023-10-31T03:11:33;10.13;;;3.25;;
63005;SDS011;53704;52.532;6.426;2023-10-31T03:13:58;16.13;;;3.72;;
63005;SDS011;53704;52.532;6.426;2023-10-31T03:16:24;14.30;;;4.10;;
63005;SDS011;53704;52.532;6.426;2023-10-31T03:18:50;12.52;;;3.47;;
63005;SDS011;53704;52.532;6.426;2023-10-31T03:21:16;7.85;;;4.05;;
63005;SDS011;53704;52.532;6.426;2023-10-31T03:23:42;15.82;;;3.28;;
63005;SDS011;53704;52.532;6.426;2023-10-31T03:26:12;15.13;;;3.72;;
63005;SDS011;53704;52.532;6.426;2023-10-31T03:28:38;7.25;;;3.58;;
63005;SDS011;53704;52.532;6.426;2023-10-31T03:31:03;7.75;;;3.53;;
63005;SDS011;53704;52.532;6.426;2023-10-31T03:33:29;11.63;;;4.13;;
63005;SDS011;53704;52.532;6.426;2023-10-31T03:35:54;13.90;;;5.20;;
63005;SDS011;53704;52.532;6.426;2023-10-31T03:38:20;6.95;;;4.43;;
63005;SDS011;53704;52.532;6.426;2023-10-31T03:40:46;8.65;;;4.40;;
63005;SDS011;53704;52.532;6.426;2023-10-31T03:43:11;15.75;;;4.70;;
63005;SDS011;53704;52.532;6.426;2023-10-31T03:45:36;9.95;;;4.93;;
63005;SDS011;53704;52.532;6.426;2023-10-31T03:48:02;12.77;;;5.35;;
63005;SDS011;53704;52.532;6.426;2023-10-31T03:50:28;13.57;;;5.07;;
63005;SDS011;53704;52.532;6.426;2023-10-31T03:52:54;19.98;;;6.00;;
63005;SDS011;53704;52.532;6.426;2023-10-31T03:55:19;23.80;;;6.55;;
63005;SDS011;53704;52.532;6.426;2023-10-31T03:57:45;11.52;;;5.88;;
63005;SDS011;53704;52.532;6.426;2023-10-31T04:00:10;14.23;;;6.22;;
63005;SDS011;53704;52.532;6.426;2023-10-31T04:02:36;11.77;;;6.78;;
63005;SDS011;53704;52.532;6.426;2023-10-31T04:05:04;20.35;;;6.80;;
63005;SDS011;53704;52.532;6.426;2023-10-31T04:07:30;12.50;;;6.25;;
63005;SDS011;53704;52.532;6.426;2023-10-31T04:09:55;13.25;;;7.18;;
63005;SDS011;53704;52.532;6.426;2023-10-31T04:12:21;16.50;;;7.13;;
63005;SDS011;53704;52.532;6.426;2023-10-31T04:14:46;16.65;;;7.80;;
63005;SDS011;53704;52.532;6.426;2023-10-31T04:17:12;15.93;;;7.97;;
63005;SDS011;53704;52.532;6.426;2023-10-31T04:19:37;17.40;;;7.75;;
63005;SDS011;53704;52.532;6.426;2023-10-31T04:22:03;24.67;;;8.63;;
63005;SDS011;53704;52.532;6.426;2023-10-31T04:24:28;13.68;;;8.05;;
63005;SDS011;53704;52.532;6.426;2023-10-31T04:26:54;15.30;;;8.38;;
63005;SDS011;53704;52.532;6.426;2023-10-31T04:29:19;17.23;;;8.80;;
63005;SDS011;53704;52.532;6.426;2023-10-31T04:31:45;23.98;;;9.25;;
63005;SDS011;53704;52.532;6.426;2023-10-31T04:34:10;23.98;;;9.82;;
63005;SDS011;53704;52.532;6.426;2023-10-31T04:36:36;22.85;;;8.30;;
63005;SDS011;53704;52.532;6.426;2023-10-31T04:39:01;13.13;;;8.18;;
63005;SDS011;53704;52.532;6.426;2023-10-31T04:41:27;14.98;;;9.02;;
63005;SDS011;53704;52.532;6.426;2023-10-31T04:43:54;15.75;;;8.65;;
63005;SDS011;53704;52.532;6.426;2023-10-31T04:46:20;13.52;;;9.13;;
63005;SDS011;53704;52.532;6.426;2023-10-31T04:48:45;18.35;;;9.13;;
63005;SDS011;53704;52.532;6.426;2023-10-31T04:51:11;14.52;;;8.88;;
63005;SDS011;53704;52.532;6.426;2023-10-31T04:53:37;15.95;;;8.70;;
63005;SDS011;53704;52.532;6.426;2023-10-31T04:56:02;14.70;;;8.07;;
63005;SDS011;53704;52.532;6.426;2023-10-31T04:58:29;24.90;;;9.82;;
63005;SDS011;53704;52.532;6.426;2023-10-31T05:00:54;17.08;;;8.23;;
63005;SDS011;53704;52.532;6.426;2023-10-31T05:03:20;16.10;;;7.88;;
63005;SDS011;53704;52.532;6.426;2023-10-31T05:05:45;10.88;;;7.68;;
63005;SDS011;53704;52.532;6.426;2023-10-31T05:08:11;19.88;;;8.30;;
63005;SDS011;53704;52.532;6.426;2023-10-31T05:10:37;14.07;;;8.30;;
63005;SDS011;53704;52.532;6.426;2023-10-31T05:13:02;13.75;;;7.30;;
63005;SDS011;53704;52.532;6.426;2023-10-31T05:15:28;15.52;;;7.28;;
63005;SDS011;53704;52.532;6.426;2023-10-31T05:17:54;12.88;;;6.30;;
63005;SDS011;53704;52.532;6.426;2023-10-31T05:20:19;10.52;;;6.78;;
63005;SDS011;53704;52.532;6.426;2023-10-31T05:22:45;15.80;;;6.38;;
63005;SDS011;53704;52.532;6.426;2023-10-31T05:25:11;9.73;;;7.25;;
63005;SDS011;53704;52.532;6.426;2023-10-31T05:27:36;12.93;;;6.63;;
63005;SDS011;53704;52.532;6.426;2023-10-31T05:30:02;16.90;;;6.57;;
63005;SDS011;53704;52.532;6.426;2023-10-31T05:32:28;15.13;;;7.00;;
63005;SDS011;53704;52.532;6.426;2023-10-31T05:34:55;8.35;;;5.90;;
63005;SDS011;53704;52.532;6.426;2023-10-31T05:37:21;11.57;;;6.85;;
63005;SDS011;53704;52.532;6.426;2023-10-31T05:39:46;17.02;;;6.38;;
63005;SDS011;53704;52.532;6.426;2023-10-31T05:42:12;14.07;;;6.30;;
63005;SDS011;53704;52.532;6.426;2023-10-31T05:44:37;11.05;;;5.57;;
63005;SDS011;53704;52.532;6.426;2023-10-31T05:47:04;9.85;;;5.70;;
63005;SDS011;53704;52.532;6.426;2023-10-31T05:49:30;15.93;;;5.95;;
63005;SDS011;53704;52.532;6.426;2023-10-31T05:51:55;17.38;;;5.93;;
63005;SDS011;53704;52.532;6.426;2023-10-31T05:54:20;9.68;;;5.20;;
63005;SDS011;53704;52.532;6.426;2023-10-31T05:56:46;7.40;;;4.78;;
63005;SDS011;53704;52.532;6.426;2023-10-31T05:59:12;6.63;;;4.40;;
63005;SDS011;53704;52.532;6.426;2023-10-31T06:01:37;11.80;;;5.03;;
63005;SDS011;53704;52.532;6.426;2023-10-31T06:04:03;6.82;;;4.45;;
63005;SDS011;53704;52.532;6.426;2023-10-31T06:06:32;8.60;;;4.40;;
63005;SDS011;53704;52.532;6.426;2023-10-31T06:08:58;16.13;;;3.80;;
63005;SDS011;53704;52.532;6.426;2023-10-31T06:11:25;8.00;;;3.78;;
63005;SDS011;53704;52.532;6.426;2023-10-31T06:13:50;7.05;;;3.70;;
63005;SDS011;53704;52.532;6.426;2023-10-31T06:16:17;10.18;;;3.70;;
63005;SDS011;53704;52.532;6.426;2023-10-31T06:18:42;7.43;;;3.20;;
63005;SDS011;53704;52.532;6.426;2023-10-31T06:21:08;7.10;;;3.00;;
63005;SDS011;53704;52.532;6.426;2023-10-31T06:23:36;5.43;;;2.80;;
63005;SDS011;53704;52.532;6.426;2023-10-31T06:26:03;5.43;;;2.60;;
63005;SDS011;53704;52.532;6.426;2023-10-31T06:28:29;12.73;;;2.83;;
63005;SDS011;53704;52.532;6.426;2023-10-31T06:30:54;9.82;;;2.70;;
63005;SDS011;53704;52.532;6.426;2023-10-31T06:33:19;3.38;;;1.95;;
63005;SDS011;53704;52.532;6.426;2023-10-31T06:35:45;7.57;;;2.33;;
63005;SDS011;53704;52.532;6.426;2023-10-31T06:38:10;5.80;;;1.95;;
63005;SDS011;53704;52.532;6.426;2023-10-31T06:40:36;12.43;;;2.70;;
63005;SDS011;53704;52.532;6.426;2023-10-31T06:43:01;3.28;;;1.75;;
63005;SDS011;53704;52.532;6.426;2023-10-31T06:45:27;3.80;;;2.28;;
63005;SDS011;53704;52.532;6.426;2023-10-31T06:47:53;9.23;;;1.90;;
63005;SDS011;53704;52.532;6.426;2023-10-31T06:50:19;5.47;;;1.67;;
63005;SDS011;53704;52.532;6.426;2023-10-31T06:52:44;8.23;;;1.55;;
63005;SDS011;53704;52.532;6.426;2023-10-31T06:55:09;3.63;;;1.42;;
63005;SDS011;53704;52.532;6.426;2023-10-31T06:57:35;6.10;;;1.10;;
63005;SDS011;53704;52.532;6.426;2023-10-31T07:00:01;2.35;;;1.20;;
63005;SDS011;53704;52.532;6.426;2023-10-31T07:02:26;6.03;;;1.20;;
63005;SDS011;53704;52.532;6.426;2023-10-31T07:04:51;5.40;;;0.90;;
63005;SDS011;53704;52.532;6.426;2023-10-31T07:07:17;7.22;;;1.20;;
63005;SDS011;53704;52.532;6.426;2023-10-31T07:09:43;2.90;;;1.05;;
63005;SDS011;53704;52.532;6.426;2023-10-31T07:12:09;4.70;;;0.90;;
63005;SDS011;53704;52.532;6.426;2023-10-31T07:14:35;7.13;;;1.15;;
63005;SDS011;53704;52.532;6.426;2023-10-31T07:17:00;8.98;;;1.33;;
63005;SDS011;53704;52.532;6.426;2023-10-31T07:19:26;4.85;;;1.20;;
63005;SDS011;53704;52.532;6.426;2023-10-31T07:21:51;3.85;;;0.90;;
63005;SDS011;53704;52.532;6.426;2023-10-31T07:24:17;2.40;;;0.88;;
63005;SDS011;53704;52.532;6.426;2023-10-31T07:26:43;6.93;;;1.23;;
63005;SDS011;53704;52.532;6.426;2023-10-31T07:29:09;2.38;;;1.20;;
63005;SDS011;53704;52.532;6.426;2023-10-31T07:31:34;2.55;;;1.25;;
63005;SDS011;53704;52.532;6.426;2023-10-31T07:34:03;3.83;;;1.30;;
63005;SDS011;53704;52.532;6.426;2023-10-31T07:36:29;7.43;;;1.60;;
63005;SDS011;53704;52.532;6.426;2023-10-31T07:38:57;10.02;;;1.63;;
63005;SDS011;53704;52.532;6.426;2023-10-31T07:41:23;10.75;;;1.80;;
63005;SDS011;53704;52.532;6.426;2023-10-31T07:43:49;5.72;;;1.48;;
63005;SDS011;53704;52.532;6.426;2023-10-31T07:46:14;3.08;;;1.58;;
63005;SDS011;53704;52.532;6.426;2023-10-31T07:48:39;5.10;;;2.00;;
63005;SDS011;53704;52.532;6.426;2023-10-31T07:51:05;4.55;;;2.00;;
63005;SDS011;53704;52.532;6.426;2023-10-31T07:53:31;3.72;;;1.70;;
63005;SDS011;53704;52.532;6.426;2023-10-31T07:55:56;7.13;;;2.38;;
63005;SDS011;53704;52.532;6.426;2023-10-31T07:58:22;4.15;;;2.28;;
63005;SDS011;53704;52.532;6.426;2023-10-31T08:00:47;6.88;;;2.10;;
63005;SDS011;53704;52.532;6.426;2023-10-31T08:03:13;8.35;;;2.42;;
63005;SDS011;53704;52.532;6.426;2023-10-31T08:05:38;10.65;;;2.50;;
63005;SDS011;53704;52.532;6.426;2023-10-31T08:08:04;5.07;;;2.30;;
63005;SDS011;53704;52.532;6.426;2023-10-31T08:10:29;6.07;;;2.97;;
63005;SDS011;53704;52.532;6.426;2023-10-31T08:12:55;7.50;;;2.63;;
63005;SDS011;53704;52.532;6.426;2023-10-31T08:15:20;3.28;;;2.10;;
63005;SDS011;53704;52.532;6.426;2023-10-31T08:17:46;5.78;;;2.38;;
63005;SDS011;53704;52.532;6.426;2023-10-31T08:20:11;11.48;;;2.88;;
63005;SDS011;53704;52.532;6.426;2023-10-31T08:22:38;2.75;;;2.20;;
63005;SDS011;53704;52.532;6.426;2023-10-31T08:25:04;10.77;;;2.78;;
63005;SDS011;53704;52.532;6.426;2023-10-31T08:27:30;3.50;;;2.40;;
63005;SDS011;53704;52.532;6.426;2023-10-31T08:29:55;7.60;;;3.10;;
63005;SDS011;53704;52.532;6.426;2023-10-31T08:32:20;6.07;;;2.67;;
63005;SDS011;53704;52.532;6.426;2023-10-31T08:34:47;5.00;;;3.10;;
63005;SDS011;53704;52.532;6.426;2023-10-31T08:37:15;4.80;;;2.42;;
63005;SDS011;53704;52.532;6.426;2023-10-31T08:39:44;3.33;;;2.45;;
63005;SDS011;53704;52.532;6.426;2023-10-31T08:42:09;2.67;;;2.40;;
63005;SDS011;53704;52.532;6.426;2023-10-31T08:44:35;5.97;;;2.80;;
63005;SDS011;53704;52.532;6.426;2023-10-31T08:47:02;6.00;;;2.42;;
63005;SDS011;53704;52.532;6.426;2023-10-31T08:49:28;8.23;;;2.80;;
63005;SDS011;53704;52.532;6.426;2023-10-31T08:51:54;6.70;;;2.92;;
63005;SDS011;53704;52.532;6.426;2023-10-31T08:54:19;6.43;;;3.25;;
63005;SDS011;53704;52.532;6.426;2023-10-31T08:56:45;7.20;;;2.53;;
63005;SDS011;53704;52.532;6.426;2023-10-31T08:59:10;7.00;;;3.03;;
63005;SDS011;53704;52.532;6.426;2023-10-31T09:01:36;8.02;;;3.10;;
63005;SDS011;53704;52.532;6.426;2023-10-31T09:04:02;3.42;;;3.20;;
63005;SDS011;53704;52.532;6.426;2023-10-31T09:06:27;4.10;;;3.35;;
63005;SDS011;53704;52.532;6.426;2023-10-31T09:08:53;6.45;;;3.80;;
63005;SDS011;53704;52.532;6.426;2023-10-31T09:11:18;3.63;;;3.20;;
63005;SDS011;53704;52.532;6.426;2023-10-31T09:13:44;3.88;;;3.33;;
63005;SDS011;53704;52.532;6.426;2023-10-31T09:16:10;11.57;;;3.72;;
63005;SDS011;53704;52.532;6.426;2023-10-31T09:18:35;6.55;;;3.35;;
63005;SDS011;53704;52.532;6.426;2023-10-31T09:21:01;4.07;;;3.22;;
63005;SDS011;53704;52.532;6.426;2023-10-31T09:23:27;7.57;;;3.30;;
63005;SDS011;53704;52.532;6.426;2023-10-31T09:25:52;8.38;;;3.42;;
63005;SDS011;53704;52.532;6.426;2023-10-31T09:28:17;8.48;;;3.80;;
63005;SDS011;53704;52.532;6.426;2023-10-31T09:30:43;7.40;;;3.33;;
63005;SDS011;53704;52.532;6.426;2023-10-31T09:33:09;6.68;;;3.50;;
63005;SDS011;53704;52.532;6.426;2023-10-31T09:35:34;13.77;;;3.83;;
63005;SDS011;53704;52.532;6.426;2023-10-31T09:38:00;10.05;;;3.17;;
63005;SDS011;53704;52.532;6.426;2023-10-31T09:40:25;12.27;;;3.30;;
63005;SDS011;53704;52.532;6.426;2023-10-31T09:42:51;7.70;;;3.30;;
63005;SDS011;53704;52.532;6.426;2023-10-31T09:45:17;9.48;;;3.05;;
63005;SDS011;53704;52.532;6.426;2023-10-31T09:47:43;11.45;;;3.60;;
63005;SDS011;53704;52.532;6.426;2023-10-31T09:50:08;17.95;;;3.00;;
63005;SDS011;53704;52.532;6.426;2023-10-31T09:52:35;10.05;;;2.88;;
63005;SDS011;53704;52.532;6.426;2023-10-31T09:55:01;8.73;;;2.70;;
63005;SDS011;53704;52.532;6.426;2023-10-31T09:57:28;2.88;;;2.22;;
63005;SDS011;53704;52.532;6.426;2023-10-31T09:59:53;5.22;;;2.35;;
63005;SDS011;53704;52.532;6.426;2023-10-31T10:02:19;13.50;;;2.90;;
63005;SDS011;53704;52.532;6.426;2023-10-31T10:04:44;12.95;;;2.78;;
63005;SDS011;53704;52.532;6.426;2023-10-31T10:07:13;4.85;;;2.20;;
63005;SDS011;53704;52.532;6.426;2023-10-31T10:09:42;5.15;;;1.80;;
63005;SDS011;53704;52.532;6.426;2023-10-31T10:12:08;6.88;;;1.90;;
63005;SDS011;53704;52.532;6.426;2023-10-31T10:14:38;7.07;;;2.10;;
63005;SDS011;53704;52.532;6.426;2023-10-31T10:17:13;3.40;;;1.73;;
63005;SDS011;53704;52.532;6.426;2023-10-31T10:19:43;10.23;;;1.85;;
63005;SDS011;53704;52.532;6.426;2023-10-31T10:22:09;5.07;;;1.88;;
63005;SDS011;53704;52.532;6.426;2023-10-31T10:24:35;4.10;;;1.60;;
63005;SDS011;53704;52.532;6.426;2023-10-31T10:27:05;7.70;;;1.98;;
63005;SDS011;53704;52.532;6.426;2023-10-31T10:29:30;5.32;;;1.67;;
63005;SDS011;53704;52.532;6.426;2023-10-31T10:31:55;7.63;;;1.60;;
63005;SDS011;53704;52.532;6.426;2023-10-31T10:34:22;5.97;;;1.67;;
63005;SDS011;53704;52.532;6.426;2023-10-31T10:36:50;8.18;;;1.50;;
63005;SDS011;53704;52.532;6.426;2023-10-31T10:39:20;4.10;;;1.10;;
63005;SDS011;53704;52.532;6.426;2023-10-31T10:41:47;10.60;;;1.55;;
63005;SDS011;53704;52.532;6.426;2023-10-31T10:44:22;4.97;;;1.30;;
63005;SDS011;53704;52.532;6.426;2023-10-31T10:46:55;2.40;;;0.98;;
63005;SDS011;53704;52.532;6.426;2023-10-31T10:49:22;2.95;;;1.40;;
63005;SDS011;53704;52.532;6.426;2023-10-31T10:51:57;4.85;;;0.93;;
63005;SDS011;53704;52.532;6.426;2023-10-31T10:55:00;6.10;;;0.85;;
63005;SDS011;53704;52.532;6.426;2023-10-31T10:57:36;4.37;;;0.87;;
63005;SDS011;53704;52.532;6.426;2023-10-31T11:00:07;6.13;;;0.90;;
63005;SDS011;53704;52.532;6.426;2023-10-31T11:02:36;2.20;;;0.70;;
63005;SDS011;53704;52.532;6.426;2023-10-31T11:05:05;5.35;;;1.08;;
63005;SDS011;53704;52.532;6.426;2023-10-31T11:07:34;2.38;;;0.90;;
63005;SDS011;53704;52.532;6.426;2023-10-31T11:10:01;3.90;;;0.93;;
63005;SDS011;53704;52.532;6.426;2023-10-31T11:12:31;4.53;;;1.13;;
63005;SDS011;53704;52.532;6.426;2023-10-31T11:14:58;3.07;;;0.73;;
63005;SDS011;53704;52.532;6.426;2023-10-31T11:17:28;10.25;;;0.93;;
63005;SDS011;53704;52.532;6.426;2023-10-31T11:19:56;2.47;;;0.57;;
63005;SDS011;53704;52.532;6.426;2023-10-31T11:22:22;3.75;;;0.63;;
63005;SDS011;53704;52.532;6.426;2023-10-31T11:24:51;2.38;;;0.65;;
63005;SDS011;53704;52.532;6.426;2023-10-31T11:27:17;5.10;;;0.40;;
63005;SDS011;53704;52.532;6.426;2023-10-31T11:29:59;4.65;;;0.55;;
63005;SDS011;53704;52.532;6.426;2023-10-31T11:32:31;1.52;;;0.50;;
63005;SDS011;53704;52.532;6.426;2023-10-31T11:34:57;2.05;;;0.50;;
63005;SDS011;53704;52.532;6.426;2023-10-31T11:42:42;6.78;;;0.70;;
63005;SDS011;53704;52.532;6.426;2023-10-31T11:45:08;1.33;;;0.80;;
63005;SDS011;53704;52.532;6.426;2023-10-31T11:47:47;3.63;;;0.60;;
63005;SDS011;53704;52.532;6.426;2023-10-31T11:50:12;3.15;;;0.70;;
63005;SDS011;53704;52.532;6.426;2023-10-31T11:52:38;2.25;;;0.95;;
63005;SDS011;53704;52.532;6.426;2023-10-31T11:55:08;3.63;;;0.40;;
63005;SDS011;53704;52.532;6.426;2023-10-31T11:57:35;6.57;;;0.80;;
63005;SDS011;53704;52.532;6.426;2023-10-31T12:00:01;3.63;;;0.70;;
63005;SDS011;53704;52.532;6.426;2023-10-31T12:02:28;4.68;;;0.63;;
63005;SDS011;53704;52.532;6.426;2023-10-31T12:05:10;4.75;;;0.70;;
63005;SDS011;53704;52.532;6.426;2023-10-31T12:07:46;2.78;;;0.57;;
63005;SDS011;53704;52.532;6.426;2023-10-31T12:10:12;2.47;;;0.60;;
63005;SDS011;53704;52.532;6.426;2023-10-31T12:12:38;6.68;;;1.10;;
63005;SDS011;53704;52.532;6.426;2023-10-31T12:15:07;3.10;;;0.60;;
63005;SDS011;53704;52.532;6.426;2023-10-31T12:17:33;2.25;;;0.60;;
63005;SDS011;53704;52.532;6.426;2023-10-31T12:20:06;1.75;;;0.73;;
63005;SDS011;53704;52.532;6.426;2023-10-31T12:22:33;1.27;;;0.40;;
63005;SDS011;53704;52.532;6.426;2023-10-31T12:25:05;1.00;;;0.57;;
63005;SDS011;53704;52.532;6.426;2023-10-31T12:27:48;2.85;;;0.73;;
63005;SDS011;53704;52.532;6.426;2023-10-31T12:30:20;1.98;;;0.65;;
63005;SDS011;53704;52.532;6.426;2023-10-31T12:32:55;2.13;;;0.52;;
63005;SDS011;53704;52.532;6.426;2023-10-31T12:35:25;2.97;;;0.52;;
63005;SDS011;53704;52.532;6.426;2023-10-31T12:37:51;11.88;;;1.33;;
63005;SDS011;53704;52.532;6.426;2023-10-31T12:40:18;2.28;;;0.88;;
63005;SDS011;53704;52.532;6.426;2023-10-31T12:42:46;11.98;;;1.20;;
63005;SDS011;53704;52.532;6.426;2023-10-31T12:45:13;4.68;;;1.13;;
63005;SDS011;53704;52.532;6.426;2023-10-31T12:47:39;1.38;;;0.70;;
63005;SDS011;53704;52.532;6.426;2023-10-31T12:50:08;5.18;;;0.60;;
63005;SDS011;53704;52.532;6.426;2023-10-31T12:52:50;3.25;;;0.50;;
63005;SDS011;53704;52.532;6.426;2023-10-31T12:55:20;3.60;;;0.73;;
63005;SDS011;53704;52.532;6.426;2023-10-31T12:57:48;0.88;;;0.40;;
63005;SDS011;53704;52.532;6.426;2023-10-31T13:00:14;1.63;;;0.52;;
63005;SDS011;53704;52.532;6.426;2023-10-31T13:02:44;4.35;;;0.98;;
63005;SDS011;53704;52.532;6.426;2023-10-31T13:05:13;5.15;;;1.63;;
63005;SDS011;53704;52.532;6.426;2023-10-31T13:07:51;10.00;;;1.20;;
63005;SDS011;53704;52.532;6.426;2023-10-31T13:10:18;4.03;;;0.73;;
63005;SDS011;53704;52.532;6.426;2023-10-31T13:12:45;7.93;;;1.17;;
63005;SDS011;53704;52.532;6.426;2023-10-31T13:15:11;2.65;;;0.82;;
63005;SDS011;53704;52.532;6.426;2023-10-31T13:17:38;5.50;;;0.95;;
63005;SDS011;53704;52.532;6.426;2023-10-31T13:20:09;1.58;;;0.43;;
63005;SDS011;53704;52.532;6.426;2023-10-31T13:22:38;3.13;;;0.50;;
63005;SDS011;53704;52.532;6.426;2023-10-31T13:25:06;7.88;;;0.90;;
63005;SDS011;53704;52.532;6.426;2023-10-31T13:27:34;8.60;;;0.50;;
63005;SDS011;53704;52.532;6.426;2023-10-31T13:30:04;5.35;;;0.80;;
63005;SDS011;53704;52.532;6.426;2023-10-31T13:32:30;2.05;;;0.40;;
63005;SDS011;53704;52.532;6.426;2023-10-31T13:34:56;1.05;;;0.57;;
63005;SDS011;53704;52.532;6.426;2023-10-31T13:37:22;4.85;;;0.50;;
63005;SDS011;53704;52.532;6.426;2023-10-31T13:39:48;3.35;;;0.63;;
63005;SDS011;53704;52.532;6.426;2023-10-31T13:42:14;5.28;;;1.45;;
63005;SDS011;53704;52.532;6.426;2023-10-31T13:44:40;4.50;;;0.82;;
63005;SDS011;53704;52.532;6.426;2023-10-31T13:47:06;1.90;;;0.75;;
63005;SDS011;53704;52.532;6.426;2023-10-31T13:49:32;2.95;;;0.80;;
63005;SDS011;53704;52.532;6.426;2023-10-31T13:51:57;2.95;;;0.50;;
63005;SDS011;53704;52.532;6.426;2023-10-31T13:54:24;1.08;;;0.50;;
63005;SDS011;53704;52.532;6.426;2023-10-31T13:56:49;2.30;;;0.60;;
63005;SDS011;53704;52.532;6.426;2023-10-31T13:59:15;1.75;;;0.57;;
63005;SDS011;53704;52.532;6.426;2023-10-31T14:01:41;4.60;;;0.75;;
63005;SDS011;53704;52.532;6.426;2023-10-31T14:04:07;9.32;;;0.77;;
63005;SDS011;53704;52.532;6.426;2023-10-31T14:06:33;1.33;;;0.70;;
63005;SDS011;53704;52.532;6.426;2023-10-31T14:08:59;0.88;;;0.65;;
63005;SDS011;53704;52.532;6.426;2023-10-31T14:11:29;6.75;;;0.70;;
63005;SDS011;53704;52.532;6.426;2023-10-31T14:13:59;2.92;;;0.47;;
63005;SDS011;53704;52.532;6.426;2023-10-31T14:16:41;4.72;;;0.50;;
63005;SDS011;53704;52.532;6.426;2023-10-31T14:19:09;11.57;;;0.80;;
63005;SDS011;53704;52.532;6.426;2023-10-31T14:21:36;4.55;;;0.63;;
63005;SDS011;53704;52.532;6.426;2023-10-31T14:24:02;2.38;;;0.52;;
63005;SDS011;53704;52.532;6.426;2023-10-31T14:26:28;5.55;;;0.68;;
63005;SDS011;53704;52.532;6.426;2023-10-31T14:28:54;3.85;;;0.70;;
63005;SDS011;53704;52.532;6.426;2023-10-31T14:31:20;0.90;;;0.43;;
63005;SDS011;53704;52.532;6.426;2023-10-31T14:33:46;3.40;;;0.70;;
63005;SDS011;53704;52.532;6.426;2023-10-31T14:36:11;2.10;;;0.50;;
63005;SDS011;53704;52.532;6.426;2023-10-31T14:38:38;11.25;;;0.70;;
63005;SDS011;53704;52.532;6.426;2023-10-31T14:41:04;2.53;;;0.70;;
63005;SDS011;53704;52.532;6.426;2023-10-31T14:43:31;2.22;;;0.57;;
63005;SDS011;53704;52.532;6.426;2023-10-31T14:45:57;1.15;;;0.47;;